Time;durP1;ratioP1;P1;durP2;ratioP2;P2;SDS_P1;SDS_P2;PMS_P1;PMS_P2;Temp;Humidity;BMP_temperature;BMP_pressure;BME280_temperature;BME280_humidity;BME280_pressure;Samples;Min_cycle;Max_cycle;Signal;HPM_P1;HPM_P2
2023/09/30 00:02:08;;;;;;;31.05;6.78;;;;;;;;;;5023556;28;20370;-77
2023/09/30 00:04:34;;;;;;;34.35;6.28;;;;;;;;;;5023650;28;20073;-79
2023/09/30 00:07:00;;;;;;;29.50;6.00;;;;;;;;;;5031052;28;20025;-77
2023/09/30 00:09:26;;;;;;;36.25;6.65;;;;;;;;;;5022843;28;20052;-78
2023/09/30 00:11:52;;;;;;;34.85;6.47;;;;;;;;;;5017263;28;20035;-77
2023/09/30 00:14:18;;;;;;;32.35;6.85;;;;;;;;;;5016974;28;20080;-76
2023/09/30 00:16:44;;;;;;;30.67;6.28;;;;;;;;;;5018143;28;20396;-77
2023/09/30 00:19:10;;;;;;;31.42;6.70;;;;;;;;;;5015764;28;20492;-75
2023/09/30 00:21:36;;;;;;;32.05;6.40;;;;;;;;;;5019486;28;20030;-78
2023/09/30 00:24:02;;;;;;;42.45;6.53;;;;;;;;;;5031603;28;20021;-78
2023/09/30 00:26:28;;;;;;;34.95;7.30;;;;;;;;;;5034484;28;20033;-79
2023/09/30 00:28:54;;;;;;;33.15;6.32;;;;;;;;;;5026169;28;20021;-79
2023/09/30 00:31:20;;;;;;;32.50;6.32;;;;;;;;;;5023742;28;20048;-78
2023/09/30 00:33:47;;;;;;;30.75;5.85;;;;;;;;;;5021996;28;20104;-78
2023/09/30 00:36:14;;;;;;;33.35;6.78;;;;;;;;;;5019260;28;20125;-79
2023/09/30 00:38:40;;;;;;;30.90;5.65;;;;;;;;;;5018289;28;20034;-80
2023/09/30 00:41:07;;;;;;;33.78;6.20;;;;;;;;;;5017805;28;20084;-79
2023/09/30 00:43:33;;;;;;;30.67;5.75;;;;;;;;;;5018030;28;20030;-79
2023/09/30 00:46:07;;;;;;;38.33;5.90;;;;;;;;;;5018060;28;20026;-77
2023/09/30 00:48:34;;;;;;;27.63;7.07;;;;;;;;;;5026769;28;20032;-77
2023/09/30 00:51:01;;;;;;;30.35;5.55;;;;;;;;;;5022100;28;20089;-79
2023/09/30 00:53:28;;;;;;;49.60;7.60;;;;;;;;;;5020723;28;20100;-79
2023/09/30 00:55:54;;;;;;;35.85;6.10;;;;;;;;;;5017486;28;20021;-79
2023/09/30 00:58:20;;;;;;;40.03;5.93;;;;;;;;;;5018892;28;20045;-79
2023/09/30 01:00:48;;;;;;;30.90;6.32;;;;;;;;;;5019167;28;20033;-78
2023/09/30 01:03:14;;;;;;;31.33;5.65;;;;;;;;;;5023141;28;20025;-78
2023/09/30 01:05:40;;;;;;;42.47;5.95;;;;;;;;;;5022025;28;20022;-78
2023/09/30 01:08:06;;;;;;;29.52;5.95;;;;;;;;;;5022407;28;20041;-79
2023/09/30 01:10:32;;;;;;;26.45;5.80;;;;;;;;;;5025516;28;20022;-77
2023/09/30 01:12:58;;;;;;;38.53;6.60;;;;;;;;;;5034841;28;20084;-76
2023/09/30 01:15:24;;;;;;;31.05;5.50;;;;;;;;;;5034536;28;20038;-76
2023/09/30 01:17:50;;;;;;;30.63;5.25;;;;;;;;;;5029625;28;20029;-79
2023/09/30 01:20:19;;;;;;;35.95;6.72;;;;;;;;;;5028158;28;20018;-77
2023/09/30 01:22:46;;;;;;;41.25;6.28;;;;;;;;;;5030907;28;20050;-78
2023/09/30 01:25:12;;;;;;;34.80;6.13;;;;;;;;;;5035794;28;20030;-76
2023/09/30 01:27:38;;;;;;;33.85;6.00;;;;;;;;;;5036319;28;20033;-76
2023/09/30 01:32:33;;;;;;;34.67;6.10;;;;;;;;;;5091303;28;20077;-75
2023/09/30 01:34:59;;;;;;;33.90;5.95;;;;;;;;;;5094073;28;20022;-74
2023/09/30 01:37:28;;;;;;;31.35;5.78;;;;;;;;;;5092322;28;20020;-73
2023/09/30 01:39:55;;;;;;;33.50;6.03;;;;;;;;;;5092128;28;20055;-74
2023/09/30 01:42:21;;;;;;;43.10;6.55;;;;;;;;;;5092179;28;20107;-74
2023/09/30 01:44:47;;;;;;;26.63;5.97;;;;;;;;;;5091886;28;20374;-73
2023/09/30 01:47:13;;;;;;;37.95;6.45;;;;;;;;;;5091884;28;20016;-73
2023/09/30 01:49:39;;;;;;;31.13;5.80;;;;;;;;;;5092516;28;20025;-74
2023/09/30 01:52:05;;;;;;;32.05;5.80;;;;;;;;;;5095102;28;20117;-75
2023/09/30 01:54:31;;;;;;;30.38;5.75;;;;;;;;;;5093110;28;20042;-72
2023/09/30 01:56:58;;;;;;;32.53;6.65;;;;;;;;;;5091540;28;20027;-72
2023/09/30 01:59:24;;;;;;;34.53;6.13;;;;;;;;;;5071977;28;20036;-72
2023/09/30 02:01:51;;;;;;;36.83;6.07;;;;;;;;;;5091523;28;20032;-72
2023/09/30 02:04:17;;;;;;;36.22;6.18;;;;;;;;;;5091769;28;20565;-73
2023/09/30 02:06:43;;;;;;;36.50;6.15;;;;;;;;;;5091625;28;20103;-73
2023/09/30 02:09:09;;;;;;;34.90;6.28;;;;;;;;;;5091512;28;20028;-73
2023/09/30 02:11:40;;;;;;;33.75;6.18;;;;;;;;;;5091679;28;20475;-72
2023/09/30 02:14:07;;;;;;;41.63;6.13;;;;;;;;;;5073541;28;20039;-73
2023/09/30 02:16:33;;;;;;;35.92;5.63;;;;;;;;;;5091874;28;20051;-74
2023/09/30 02:18:59;;;;;;;37.40;5.30;;;;;;;;;;5091590;28;20089;-74
2023/09/30 02:21:26;;;;;;;40.83;6.18;;;;;;;;;;5091566;28;20402;-73
2023/09/30 02:23:54;;;;;;;39.08;5.82;;;;;;;;;;5091585;28;20027;-74
2023/09/30 02:26:21;;;;;;;35.35;6.03;;;;;;;;;;5091706;28;20016;-73
2023/09/30 02:28:47;;;;;;;31.27;5.78;;;;;;;;;;5091547;28;20424;-73
2023/09/30 02:31:13;;;;;;;40.90;6.45;;;;;;;;;;5107521;28;20043;-71
2023/09/30 02:33:39;;;;;;;30.73;6.25;;;;;;;;;;5104482;28;20105;-74
2023/09/30 02:36:08;;;;;;;36.25;6.32;;;;;;;;;;5092562;28;20089;-74
2023/09/30 02:38:36;;;;;;;33.20;5.68;;;;;;;;;;5091431;28;20035;-74
2023/09/30 02:41:02;;;;;;;32.13;6.00;;;;;;;;;;5091376;28;20046;-75
2023/09/30 02:43:29;;;;;;;33.47;5.95;;;;;;;;;;5091171;28;20021;-72
2023/09/30 02:45:55;;;;;;;34.08;6.22;;;;;;;;;;5091369;28;20119;-73
2023/09/30 02:48:21;;;;;;;34.47;6.25;;;;;;;;;;5091473;28;20067;-73
2023/09/30 02:50:47;;;;;;;29.92;6.57;;;;;;;;;;5091089;28;20116;-73
2023/09/30 02:53:13;;;;;;;40.60;7.15;;;;;;;;;;5090181;28;20486;-73
2023/09/30 02:55:40;;;;;;;32.33;6.60;;;;;;;;;;5091220;28;20070;-72
2023/09/30 02:58:07;;;;;;;48.58;7.20;;;;;;;;;;5091155;28;20379;-73
2023/09/30 03:00:34;;;;;;;36.03;6.15;;;;;;;;;;5091129;28;20555;-72
2023/09/30 03:03:03;;;;;;;49.47;7.95;;;;;;;;;;5091663;28;20032;-72
2023/09/30 03:05:33;;;;;;;40.92;6.43;;;;;;;;;;5094771;28;20398;-75
2023/09/30 03:07:59;;;;;;;34.10;6.35;;;;;;;;;;5080230;28;20077;-80
2023/09/30 03:10:26;;;;;;;36.03;6.90;;;;;;;;;;5098501;28;20059;-79
2023/09/30 03:12:56;;;;;;;42.75;6.38;;;;;;;;;;5097480;28;20030;-77
2023/09/30 03:15:23;;;;;;;30.60;6.38;;;;;;;;;;5097504;28;20024;-74
2023/09/30 03:17:49;;;;;;;29.95;5.85;;;;;;;;;;5079541;28;20024;-75
2023/09/30 03:20:19;;;;;;;33.50;6.45;;;;;;;;;;5098064;28;20054;-76
2023/09/30 03:22:48;;;;;;;45.13;7.15;;;;;;;;;;5098143;28;20023;-73
2023/09/30 03:25:17;;;;;;;40.30;7.03;;;;;;;;;;5097716;28;20043;-75
2023/09/30 03:27:43;;;;;;;32.40;6.60;;;;;;;;;;5098199;28;20020;-75
2023/09/30 03:30:12;;;;;;;34.63;6.70;;;;;;;;;;5097661;28;20028;-74
2023/09/30 03:32:38;;;;;;;38.67;7.22;;;;;;;;;;5096699;28;20028;-75
2023/09/30 03:35:10;;;;;;;32.67;6.60;;;;;;;;;;5096185;28;20031;-75
2023/09/30 03:37:36;;;;;;;30.27;6.00;;;;;;;;;;5097436;28;20020;-75
2023/09/30 03:40:11;;;;;;;37.42;7.25;;;;;;;;;;5097146;28;20129;-74
2023/09/30 03:42:39;;;;;;;34.20;6.57;;;;;;;;;;5099631;28;20035;-75
2023/09/30 03:45:07;;;;;;;36.08;6.68;;;;;;;;;;5082266;28;20115;-74
2023/09/30 03:47:33;;;;;;;41.55;7.45;;;;;;;;;;5097348;28;20054;-74
2023/09/30 03:49:59;;;;;;;35.38;6.55;;;;;;;;;;5095907;28;20053;-75
2023/09/30 03:52:26;;;;;;;41.65;7.55;;;;;;;;;;5097037;28;20024;-79
2023/09/30 03:54:53;;;;;;;35.17;6.43;;;;;;;;;;5097999;28;20107;-77
2023/09/30 03:57:19;;;;;;;33.90;6.78;;;;;;;;;;5097073;28;20020;-76
2023/09/30 03:59:48;;;;;;;33.88;6.55;;;;;;;;;;5095974;28;20028;-74
2023/09/30 04:02:14;;;;;;;37.88;6.60;;;;;;;;;;5096437;28;20120;-74
2023/09/30 04:04:40;;;;;;;31.35;6.40;;;;;;;;;;5097369;28;20055;-74
2023/09/30 04:07:07;;;;;;;26.00;5.68;;;;;;;;;;5079913;28;20020;-75
2023/09/30 04:09:33;;;;;;;38.92;7.07;;;;;;;;;;5099216;28;20030;-74
2023/09/30 04:12:01;;;;;;;29.77;5.90;;;;;;;;;;5102497;28;20024;-73
2023/09/30 04:14:27;;;;;;;35.85;6.72;;;;;;;;;;5083366;28;20043;-74
2023/09/30 04:16:54;;;;;;;37.08;5.68;;;;;;;;;;5102555;28;20032;-74
2023/09/30 04:19:21;;;;;;;34.88;5.97;;;;;;;;;;5102115;28;20039;-76
2023/09/30 04:21:47;;;;;;;34.47;6.25;;;;;;;;;;5084059;28;20016;-74
2023/09/30 04:24:13;;;;;;;35.00;6.10;;;;;;;;;;5085965;28;20032;-73
2023/09/30 04:26:41;;;;;;;27.00;6.10;;;;;;;;;;5083583;28;20020;-74
2023/09/30 04:29:10;;;;;;;36.40;7.10;;;;;;;;;;5082342;28;20052;-74
2023/09/30 04:31:37;;;;;;;31.30;5.20;;;;;;;;;;5101969;28;20406;-74
2023/09/30 04:34:04;;;;;;;41.17;6.07;;;;;;;;;;5104949;28;20024;-74
2023/09/30 04:36:30;;;;;;;32.88;7.75;;;;;;;;;;5105760;28;20107;-74
2023/09/30 04:38:56;;;;;;;37.15;6.18;;;;;;;;;;5105767;28;20084;-76
2023/09/30 04:41:25;;;;;;;37.65;7.55;;;;;;;;;;5100925;28;20059;-72
2023/09/30 04:43:52;;;;;;;45.03;7.03;;;;;;;;;;5093403;28;20019;-74
2023/09/30 04:46:20;;;;;;;33.75;6.53;;;;;;;;;;5092928;28;20035;-73
2023/09/30 04:48:48;;;;;;;36.45;6.55;;;;;;;;;;5093072;28;20069;-72
2023/09/30 04:51:18;;;;;;;40.47;6.88;;;;;;;;;;5092877;28;20026;-74
2023/09/30 04:53:46;;;;;;;38.90;6.68;;;;;;;;;;5092872;28;20012;-75
2023/09/30 04:56:12;;;;;;;27.35;5.75;;;;;;;;;;5081979;28;20019;-74
2023/09/30 04:58:38;;;;;;;34.85;6.40;;;;;;;;;;5094932;28;20111;-74
2023/09/30 05:01:03;;;;;;;35.25;6.40;;;;;;;;;;5095336;28;20127;-73
2023/09/30 05:03:29;;;;;;;34.30;8.38;;;;;;;;;;5089071;28;20024;-74
2023/09/30 05:05:56;;;;;;;31.15;6.15;;;;;;;;;;5097209;28;20095;-74
2023/09/30 05:08:24;;;;;;;32.25;6.20;;;;;;;;;;5092672;28;20024;-74
2023/09/30 05:10:50;;;;;;;41.05;7.10;;;;;;;;;;5100986;28;20059;-73
2023/09/30 05:13:16;;;;;;;30.27;6.63;;;;;;;;;;5090905;28;20040;-74
2023/09/30 05:15:42;;;;;;;41.92;7.93;;;;;;;;;;5091129;28;20059;-74
2023/09/30 05:18:09;;;;;;;34.55;5.97;;;;;;;;;;5092346;28;20440;-73
2023/09/30 05:20:36;;;;;;;42.20;6.63;;;;;;;;;;5092892;28;20113;-73
2023/09/30 05:23:02;;;;;;;54.42;8.45;;;;;;;;;;5073713;28;20028;-74
2023/09/30 05:25:28;;;;;;;33.15;6.18;;;;;;;;;;5096517;28;20028;-76
2023/09/30 05:27:55;;;;;;;26.73;6.05;;;;;;;;;;5098534;28;20012;-77
2023/09/30 05:30:21;;;;;;;31.42;5.95;;;;;;;;;;5093736;28;20115;-77
2023/09/30 05:32:47;;;;;;;32.85;6.78;;;;;;;;;;5075929;28;20043;-77
2023/09/30 05:35:16;;;;;;;34.42;6.85;;;;;;;;;;5092204;28;20028;-72
2023/09/30 05:37:43;;;;;;;28.27;6.70;;;;;;;;;;5091743;28;20032;-77
2023/09/30 05:40:30;;;;;;;36.92;6.85;;;;;;;;;;5075906;28;20024;-73
2023/09/30 05:42:59;;;;;;;37.88;6.70;;;;;;;;;;5091734;28;20061;-72
2023/09/30 05:45:26;;;;;;;35.97;7.43;;;;;;;;;;5097509;28;20020;-74
2023/09/30 05:47:53;;;;;;;30.58;6.50;;;;;;;;;;5086166;28;20401;-73
2023/09/30 05:50:24;;;;;;;34.13;7.10;;;;;;;;;;5073613;28;20028;-73
2023/09/30 05:52:50;;;;;;;31.25;6.50;;;;;;;;;;5091696;28;20025;-73
2023/09/30 05:55:20;;;;;;;38.33;6.50;;;;;;;;;;5088270;28;20031;-73
2023/09/30 05:57:47;;;;;;;27.48;6.43;;;;;;;;;;5099743;28;20024;-73
2023/09/30 06:00:23;;;;;;;38.70;6.82;;;;;;;;;;5105118;28;20055;-73
2023/09/30 06:02:51;;;;;;;36.85;6.65;;;;;;;;;;5095604;28;20106;-73
2023/09/30 06:05:18;;;;;;;35.17;6.90;;;;;;;;;;5073838;28;20024;-74
2023/09/30 06:07:45;;;;;;;34.50;8.45;;;;;;;;;;5091434;28;20028;-74
2023/09/30 06:10:11;;;;;;;33.78;6.82;;;;;;;;;;5091397;28;20027;-73
2023/09/30 06:12:37;;;;;;;33.13;6.25;;;;;;;;;;5089319;28;20047;-71
2023/09/30 06:15:03;;;;;;;30.08;6.22;;;;;;;;;;5097090;28;20024;-73
2023/09/30 06:17:29;;;;;;;26.05;6.22;;;;;;;;;;5091589;28;20483;-73
2023/09/30 06:19:55;;;;;;;33.58;7.10;;;;;;;;;;5093483;28;20028;-73
2023/09/30 06:22:21;;;;;;;37.40;6.20;;;;;;;;;;5100192;28;20441;-72
2023/09/30 06:24:48;;;;;;;39.33;7.10;;;;;;;;;;5110231;28;20020;-76
2023/09/30 06:27:14;;;;;;;32.10;5.68;;;;;;;;;;5112207;28;20020;-74
2023/09/30 06:29:42;;;;;;;35.40;6.57;;;;;;;;;;5115349;28;20028;-74
2023/09/30 06:32:08;;;;;;;34.30;6.13;;;;;;;;;;5096341;28;20054;-79
2023/09/30 06:34:34;;;;;;;38.72;6.47;;;;;;;;;;5096184;28;20061;-72
2023/09/30 06:37:00;;;;;;;36.17;6.43;;;;;;;;;;5092690;28;20027;-73
2023/09/30 06:39:26;;;;;;;28.52;5.82;;;;;;;;;;5092228;28;20032;-75
2023/09/30 06:41:52;;;;;;;36.10;8.63;;;;;;;;;;5095265;28;20021;-72
2023/09/30 06:44:19;;;;;;;27.23;5.65;;;;;;;;;;5095311;28;20018;-71
2023/09/30 06:46:45;;;;;;;37.38;6.63;;;;;;;;;;5096732;28;20023;-72
2023/09/30 06:49:11;;;;;;;28.60;5.55;;;;;;;;;;5095632;28;20040;-72
2023/09/30 06:51:37;;;;;;;42.72;6.57;;;;;;;;;;5096125;28;20028;-72
2023/09/30 06:54:06;;;;;;;37.28;6.43;;;;;;;;;;5096091;28;20056;-72
2023/09/30 06:56:32;;;;;;;25.98;6.00;;;;;;;;;;5095628;28;20073;-72
2023/09/30 06:58:59;;;;;;;38.88;5.68;;;;;;;;;;5077051;28;20042;-73
2023/09/30 07:01:25;;;;;;;33.03;6.80;;;;;;;;;;5098532;28;20028;-76
2023/09/30 07:03:51;;;;;;;34.00;6.40;;;;;;;;;;5081881;28;20024;-73
2023/09/30 07:06:27;;;;;;;43.20;10.10;;;;;;;;;;5096310;28;20076;-73
2023/09/30 07:08:53;;;;;;;21.98;5.22;;;;;;;;;;5096599;28;20490;-72
2023/09/30 07:11:34;;;;;;;32.60;6.47;;;;;;;;;;5096416;28;20050;-75
2023/09/30 07:14:00;;;;;;;26.90;5.57;;;;;;;;;;5094841;28;20031;-71
2023/09/30 07:16:26;;;;;;;36.33;5.80;;;;;;;;;;5094581;28;20028;-71
2023/09/30 07:18:52;;;;;;;31.55;6.70;;;;;;;;;;5094365;28;20031;-73
2023/09/30 07:21:18;;;;;;;30.70;6.60;;;;;;;;;;5076196;28;20024;-72
2023/09/30 07:23:44;;;;;;;30.20;6.03;;;;;;;;;;5093450;28;20074;-72
2023/09/30 07:26:10;;;;;;;39.88;7.15;;;;;;;;;;5096775;28;20532;-72
2023/09/30 07:28:36;;;;;;;34.92;7.57;;;;;;;;;;5100064;28;20028;-73
2023/09/30 07:31:02;;;;;;;29.70;5.05;;;;;;;;;;5100315;28;20156;-71
2023/09/30 07:33:29;;;;;;;30.45;7.05;;;;;;;;;;5098298;28;20053;-75
2023/09/30 07:35:55;;;;;;;26.88;5.07;;;;;;;;;;5105139;28;20091;-78
2023/09/30 07:38:22;;;;;;;30.95;5.20;;;;;;;;;;5106872;28;20028;-74
2023/09/30 07:40:51;;;;;;;32.83;6.25;;;;;;;;;;5084657;28;20054;-74
2023/09/30 07:43:20;;;;;;;44.83;6.70;;;;;;;;;;5101821;28;20103;-73
2023/09/30 07:45:46;;;;;;;25.42;5.78;;;;;;;;;;5081522;28;20422;-76
2023/09/30 07:48:12;;;;;;;25.88;5.30;;;;;;;;;;5101308;28;20020;-76
2023/09/30 07:50:39;;;;;;;30.10;5.03;;;;;;;;;;5076735;28;20043;-76
2023/09/30 07:53:05;;;;;;;25.35;5.40;;;;;;;;;;5093658;28;20471;-76
2023/09/30 07:55:31;;;;;;;21.27;4.40;;;;;;;;;;5094571;28;20162;-77
2023/09/30 07:57:59;;;;;;;25.63;5.28;;;;;;;;;;5094406;28;20024;-74
2023/09/30 08:00:25;;;;;;;23.45;4.50;;;;;;;;;;5094757;28;20027;-77
2023/09/30 08:02:51;;;;;;;26.08;4.90;;;;;;;;;;5097568;28;20016;-78
2023/09/30 08:05:18;;;;;;;28.55;4.95;;;;;;;;;;5102735;28;20087;-78
2023/09/30 08:07:45;;;;;;;25.08;5.15;;;;;;;;;;5082055;28;20099;-79
2023/09/30 08:10:13;;;;;;;33.38;4.43;;;;;;;;;;5085176;28;20044;-73
2023/09/30 08:12:39;;;;;;;23.63;4.20;;;;;;;;;;5095046;28;20020;-71
2023/09/30 08:15:06;;;;;;;25.75;4.43;;;;;;;;;;5094444;28;20024;-72
2023/09/30 08:17:33;;;;;;;39.95;5.30;;;;;;;;;;5093970;28;20483;-72
2023/09/30 08:19:59;;;;;;;33.20;5.00;;;;;;;;;;5093502;28;20027;-74
2023/09/30 08:22:27;;;;;;;23.27;3.97;;;;;;;;;;5093618;28;20020;-73
2023/09/30 08:24:54;;;;;;;26.13;4.22;;;;;;;;;;5093188;28;20024;-73
2023/09/30 08:27:20;;;;;;;17.60;4.18;;;;;;;;;;5093034;28;20073;-72
2023/09/30 08:29:46;;;;;;;21.98;4.53;;;;;;;;;;5093123;28;20032;-74
2023/09/30 08:32:12;;;;;;;19.55;4.35;;;;;;;;;;5093209;28;20028;-72
2023/09/30 08:34:39;;;;;;;25.15;4.40;;;;;;;;;;5093197;28;20035;-74
2023/09/30 08:37:05;;;;;;;25.65;4.53;;;;;;;;;;5093119;28;20024;-74
2023/09/30 08:39:31;;;;;;;24.42;5.20;;;;;;;;;;5093290;28;20027;-74
2023/09/30 08:41:57;;;;;;;26.30;5.30;;;;;;;;;;5093246;28;20024;-74
2023/09/30 08:44:23;;;;;;;26.60;6.20;;;;;;;;;;5093040;28;20560;-73
2023/09/30 08:46:49;;;;;;;22.70;4.53;;;;;;;;;;5092911;28;20389;-74
2023/09/30 08:49:15;;;;;;;19.02;4.13;;;;;;;;;;5092968;28;20035;-73
2023/09/30 08:51:42;;;;;;;19.23;3.42;;;;;;;;;;5092673;28;20437;-73
2023/09/30 08:54:08;;;;;;;17.05;3.25;;;;;;;;;;5092848;28;20031;-73
2023/09/30 08:56:34;;;;;;;19.48;4.00;;;;;;;;;;5092352;28;20054;-73
2023/09/30 08:59:01;;;;;;;27.40;4.25;;;;;;;;;;5092642;28;20434;-74
2023/09/30 09:01:27;;;;;;;21.88;4.18;;;;;;;;;;5092676;28;20020;-74
2023/09/30 09:03:54;;;;;;;22.02;3.88;;;;;;;;;;5092507;28;20126;-71
2023/09/30 09:06:23;;;;;;;21.90;4.07;;;;;;;;;;5092367;28;20031;-72
2023/09/30 09:08:49;;;;;;;26.27;4.03;;;;;;;;;;5097465;28;20028;-73
2023/09/30 09:11:15;;;;;;;28.88;4.18;;;;;;;;;;5079924;28;20038;-74
2023/09/30 09:14:00;;;;;;;21.73;3.63;;;;;;;;;;5097368;28;20088;-76
2023/09/30 09:16:26;;;;;;;26.70;4.72;;;;;;;;;;5103905;28;20016;-74
2023/09/30 09:18:53;;;;;;;22.38;4.70;;;;;;;;;;5097244;28;20429;-75
2023/09/30 09:21:20;;;;;;;20.77;4.22;;;;;;;;;;5094783;28;20020;-73
2023/09/30 09:23:50;;;;;;;16.52;4.07;;;;;;;;;;5076874;28;20515;-75
2023/09/30 09:26:34;;;;;;;24.90;3.85;;;;;;;;;;5074581;28;20016;-75
2023/09/30 09:29:04;;;;;;;18.27;4.20;;;;;;;;;;5094541;28;20016;-74
2023/09/30 09:31:35;;;;;;;20.40;4.15;;;;;;;;;;5095351;28;20043;-75
2023/09/30 09:34:02;;;;;;;24.88;4.53;;;;;;;;;;5094687;28;20032;-75
2023/09/30 09:36:42;;;;;;;26.25;4.00;;;;;;;;;;5093578;28;20120;-78
2023/09/30 09:39:08;;;;;;;24.30;4.65;;;;;;;;;;5093607;28;20494;-74
2023/09/30 09:41:49;;;;;;;18.75;3.63;;;;;;;;;;5093621;28;20112;-76
2023/09/30 09:44:16;;;;;;;17.67;4.03;;;;;;;;;;5095975;28;20024;-74
2023/09/30 09:46:42;;;;;;;25.08;3.83;;;;;;;;;;5094527;28;20089;-75
2023/09/30 09:49:09;;;;;;;20.55;3.90;;;;;;;;;;5099497;28;20036;-73
2023/09/30 09:51:35;;;;;;;18.65;3.63;;;;;;;;;;5102836;28;20020;-72
2023/09/30 09:54:03;;;;;;;24.45;4.78;;;;;;;;;;5094484;28;20395;-74
2023/09/30 09:56:29;;;;;;;22.25;3.85;;;;;;;;;;5092863;28;20058;-73
2023/09/30 09:58:55;;;;;;;21.88;4.57;;;;;;;;;;5093557;28;20035;-74
2023/09/30 10:01:21;;;;;;;20.13;4.18;;;;;;;;;;5094116;28;20024;-74
2023/09/30 10:03:48;;;;;;;15.80;3.28;;;;;;;;;;5093556;28;20099;-73
2023/09/30 10:06:15;;;;;;;21.88;4.13;;;;;;;;;;5075343;28;20050;-75
2023/09/30 10:08:43;;;;;;;16.25;3.65;;;;;;;;;;5093327;28;20020;-73
2023/09/30 10:11:10;;;;;;;16.15;3.58;;;;;;;;;;5094289;28;20065;-74
2023/09/30 10:14:00;;;;;;;20.00;3.80;;;;;;;;;;5076203;28;20052;-73
2023/09/30 10:16:41;;;;;;;19.55;3.75;;;;;;;;;;5079895;28;20024;-73
2023/09/30 10:19:14;;;;;;;16.80;3.50;;;;;;;;;;5100960;28;20032;-73
2023/09/30 10:21:40;;;;;;;19.35;3.72;;;;;;;;;;5100242;28;20028;-75
2023/09/30 10:24:25;;;;;;;19.65;3.63;;;;;;;;;;5102459;28;20554;-73
2023/09/30 10:27:10;;;;;;;15.73;3.50;;;;;;;;;;5099361;28;20020;-74
2023/09/30 10:29:42;;;;;;;20.38;3.33;;;;;;;;;;5100660;28;20020;-74
2023/09/30 10:32:08;;;;;;;16.40;3.20;;;;;;;;;;5102169;28;20051;-74
2023/09/30 10:34:35;;;;;;;18.10;3.65;;;;;;;;;;5099995;28;20050;-76
2023/09/30 10:37:20;;;;;;;17.77;3.30;;;;;;;;;;5099876;28;20333;-74
2023/09/30 10:39:56;;;;;;;14.45;3.05;;;;;;;;;;5102226;28;20023;-74
2023/09/30 10:42:40;;;;;;;14.45;3.13;;;;;;;;;;5083737;28;20411;-74
2023/09/30 10:45:07;;;;;;;17.73;3.90;;;;;;;;;;5095362;28;20024;-74
2023/09/30 10:47:37;;;;;;;20.20;3.78;;;;;;;;;;5095217;28;20066;-73
2023/09/30 10:50:04;;;;;;;17.70;3.63;;;;;;;;;;5095045;28;20077;-74
2023/09/30 10:52:31;;;;;;;14.30;3.20;;;;;;;;;;5095140;28;20031;-73
2023/09/30 10:55:03;;;;;;;19.40;4.95;;;;;;;;;;5094982;28;20100;-73
2023/09/30 10:57:29;;;;;;;18.85;3.15;;;;;;;;;;5095296;28;20032;-73
2023/09/30 11:00:08;;;;;;;14.50;3.17;;;;;;;;;;5077135;28;20443;-74
2023/09/30 11:02:35;;;;;;;20.67;4.05;;;;;;;;;;5099787;28;20024;-74
2023/09/30 11:05:11;;;;;;;24.15;3.97;;;;;;;;;;5080139;28;20032;-73
2023/09/30 11:07:39;;;;;;;16.30;3.20;;;;;;;;;;5099390;28;20103;-73
2023/09/30 11:10:06;;;;;;;16.67;3.72;;;;;;;;;;5103260;28;20024;-75
2023/09/30 11:12:32;;;;;;;22.17;4.20;;;;;;;;;;5082353;28;20074;-73
2023/09/30 11:15:02;;;;;;;26.35;4.03;;;;;;;;;;5100912;28;20031;-74
2023/09/30 11:17:28;;;;;;;16.75;3.70;;;;;;;;;;5099837;28;20028;-72
2023/09/30 11:19:54;;;;;;;13.13;3.03;;;;;;;;;;5100652;28;20031;-73
2023/09/30 11:22:21;;;;;;;15.90;2.88;;;;;;;;;;5096835;28;20024;-73
2023/09/30 11:24:47;;;;;;;14.50;2.92;;;;;;;;;;5096033;28;20016;-74
2023/09/30 11:27:13;;;;;;;19.33;3.63;;;;;;;;;;5095543;28;20028;-74
2023/09/30 11:29:49;;;;;;;15.85;3.28;;;;;;;;;;5095607;28;20067;-74
2023/09/30 11:32:26;;;;;;;16.75;3.65;;;;;;;;;;5097454;28;20073;-74
2023/09/30 11:34:53;;;;;;;14.50;3.65;;;;;;;;;;5079310;28;20085;-74
2023/09/30 11:37:19;;;;;;;13.95;3.45;;;;;;;;;;5078193;28;20107;-74
2023/09/30 11:39:45;;;;;;;16.33;3.40;;;;;;;;;;5097559;28;20056;-76
2023/09/30 11:42:19;;;;;;;19.27;3.38;;;;;;;;;;5095347;28;20016;-73
2023/09/30 11:44:49;;;;;;;9.80;2.63;;;;;;;;;;5076655;28;20439;-74
2023/09/30 11:47:16;;;;;;;16.23;3.40;;;;;;;;;;5095933;28;20028;-74
2023/09/30 11:49:49;;;;;;;11.93;3.45;;;;;;;;;;5077007;28;20020;-74
2023/09/30 11:52:15;;;;;;;17.90;3.45;;;;;;;;;;5096751;28;20047;-73
2023/09/30 11:54:43;;;;;;;17.55;3.78;;;;;;;;;;5095639;28;20027;-74
2023/09/30 11:57:09;;;;;;;10.43;3.10;;;;;;;;;;5078263;28;20023;-75
2023/09/30 11:59:36;;;;;;;15.48;3.20;;;;;;;;;;5096704;28;20391;-75
2023/09/30 12:02:11;;;;;;;14.35;3.13;;;;;;;;;;5097494;28;20394;-74
2023/09/30 12:04:38;;;;;;;12.43;2.88;;;;;;;;;;5094408;28;20020;-73
2023/09/30 12:07:04;;;;;;;12.77;3.10;;;;;;;;;;5075114;28;20077;-72
2023/09/30 12:09:31;;;;;;;17.08;3.70;;;;;;;;;;5093755;28;20101;-72
2023/09/30 12:11:57;;;;;;;16.13;2.83;;;;;;;;;;5093549;28;20387;-73
2023/09/30 12:14:24;;;;;;;16.70;2.63;;;;;;;;;;5075178;28;20372;-72
2023/09/30 12:16:50;;;;;;;17.95;3.83;;;;;;;;;;5093295;28;20032;-73
2023/09/30 12:19:17;;;;;;;12.90;3.17;;;;;;;;;;5093238;28;20020;-74
2023/09/30 12:21:46;;;;;;;12.60;2.70;;;;;;;;;;5093035;28;20026;-73
2023/09/30 12:24:15;;;;;;;16.42;3.45;;;;;;;;;;5092398;28;20020;-73
2023/09/30 12:26:41;;;;;;;12.25;2.75;;;;;;;;;;5092953;28;20141;-73
2023/09/30 12:29:09;;;;;;;16.73;3.42;;;;;;;;;;5092956;28;20077;-74
2023/09/30 12:31:35;;;;;;;12.52;3.20;;;;;;;;;;5095162;28;20032;-73
2023/09/30 12:34:02;;;;;;;13.68;2.88;;;;;;;;;;5079111;28;20111;-73
2023/09/30 12:36:28;;;;;;;16.75;3.10;;;;;;;;;;5095591;28;20048;-73
2023/09/30 12:38:54;;;;;;;13.23;3.03;;;;;;;;;;5092654;28;20020;-73
2023/09/30 12:41:21;;;;;;;9.40;2.50;;;;;;;;;;5092757;28;20024;-72
2023/09/30 12:43:47;;;;;;;18.88;3.00;;;;;;;;;;5095728;28;20094;-76
2023/09/30 12:46:13;;;;;;;14.52;3.10;;;;;;;;;;5095289;28;20024;-74
2023/09/30 12:48:39;;;;;;;13.32;2.47;;;;;;;;;;5097271;28;20044;-74
2023/09/30 12:51:06;;;;;;;17.83;4.88;;;;;;;;;;5075644;28;20604;-73
2023/09/30 12:53:33;;;;;;;15.43;3.35;;;;;;;;;;5099986;28;20039;-75
2023/09/30 12:55:59;;;;;;;17.40;3.70;;;;;;;;;;5082517;28;20024;-74
2023/09/30 12:58:27;;;;;;;20.70;4.15;;;;;;;;;;5081280;28;20111;-72
2023/09/30 13:00:53;;;;;;;18.80;3.22;;;;;;;;;;5094494;28;20028;-73
2023/09/30 13:03:19;;;;;;;11.00;2.90;;;;;;;;;;5082609;28;20156;-73
2023/09/30 13:05:45;;;;;;;13.30;2.88;;;;;;;;;;5104628;28;20067;-76
2023/09/30 13:08:11;;;;;;;15.10;2.80;;;;;;;;;;5108159;28;20024;-77
2023/09/30 13:10:38;;;;;;;18.55;3.33;;;;;;;;;;5094694;28;20054;-76
2023/09/30 13:13:05;;;;;;;18.35;3.50;;;;;;;;;;5094040;28;20031;-75
2023/09/30 13:15:31;;;;;;;18.33;2.80;;;;;;;;;;5074494;28;20024;-75
2023/09/30 13:17:57;;;;;;;11.80;2.80;;;;;;;;;;5095636;28;20034;-79
2023/09/30 13:20:23;;;;;;;15.60;3.33;;;;;;;;;;5092804;28;20032;-75
2023/09/30 13:22:49;;;;;;;16.65;3.33;;;;;;;;;;5094900;28;20012;-78
2023/09/30 13:25:16;;;;;;;9.77;2.45;;;;;;;;;;5093576;28;20106;-79
2023/09/30 13:27:43;;;;;;;14.45;2.67;;;;;;;;;;5093061;28;20019;-76
2023/09/30 13:30:10;;;;;;;23.10;3.22;;;;;;;;;;5093142;28;20509;-80
2023/09/30 13:32:36;;;;;;;16.23;3.70;;;;;;;;;;5082642;28;20062;-80
2023/09/30 13:35:05;;;;;;;18.95;3.45;;;;;;;;;;5079204;28;20031;-78
2023/09/30 13:37:33;;;;;;;15.27;4.00;;;;;;;;;;5091821;28;20435;-77
2023/09/30 13:40:00;;;;;;;16.98;4.28;;;;;;;;;;5091750;28;20024;-73
2023/09/30 13:42:26;;;;;;;15.52;2.67;;;;;;;;;;5091709;28;20035;-73
2023/09/30 13:44:52;;;;;;;10.75;3.25;;;;;;;;;;5091745;28;20020;-74
2023/09/30 13:47:18;;;;;;;14.25;2.72;;;;;;;;;;5091615;28;20030;-71
2023/09/30 13:49:44;;;;;;;14.63;3.55;;;;;;;;;;5090900;28;20516;-72
2023/09/30 13:52:10;;;;;;;14.35;4.25;;;;;;;;;;5091662;28;20024;-74
2023/09/30 13:54:36;;;;;;;19.05;4.53;;;;;;;;;;5092115;28;20507;-76
2023/09/30 13:57:02;;;;;;;18.95;4.90;;;;;;;;;;5073609;28;20038;-77
2023/09/30 13:59:27;;;;;;;20.92;3.70;;;;;;;;;;5091692;28;20019;-76
2023/09/30 14:01:53;;;;;;;24.60;3.50;;;;;;;;;;5091690;28;20027;-77
2023/09/30 14:04:19;;;;;;;14.00;3.33;;;;;;;;;;5094303;28;20031;-76
2023/09/30 14:06:47;;;;;;;14.95;3.15;;;;;;;;;;5078262;28;20024;-74
2023/09/30 14:09:14;;;;;;;13.05;2.38;;;;;;;;;;5079801;28;20040;-74
2023/09/30 14:11:41;;;;;;;19.23;3.55;;;;;;;;;;5094663;28;20429;-74
2023/09/30 14:14:09;;;;;;;15.73;2.83;;;;;;;;;;5094808;28;20048;-74
2023/09/30 14:16:35;;;;;;;20.95;3.10;;;;;;;;;;5095037;28;20107;-74
2023/09/30 14:19:01;;;;;;;11.88;2.70;;;;;;;;;;5093108;28;20060;-73
2023/09/30 14:21:27;;;;;;;17.25;3.58;;;;;;;;;;5097399;28;20080;-73
2023/09/30 14:23:54;;;;;;;20.52;3.53;;;;;;;;;;5100251;28;20027;-73
2023/09/30 14:26:20;;;;;;;16.05;3.47;;;;;;;;;;5103193;28;20429;-74
2023/09/30 14:28:46;;;;;;;15.15;2.78;;;;;;;;;;5101817;28;20039;-73
2023/09/30 14:31:14;;;;;;;16.02;2.70;;;;;;;;;;5075457;28;20046;-74
2023/09/30 14:33:40;;;;;;;15.32;2.95;;;;;;;;;;5091634;28;20028;-76
2023/09/30 14:36:06;;;;;;;19.17;3.22;;;;;;;;;;5073002;28;20024;-74